This is the latest recevied weather packets stored in our database for station/object DH4SBM. If no packets are shown the sender has not sent any weather packets the latest 10 day(s).
| Time | Temp. | Humidity | Pressure | Rain* | Wind** | Luminosity | Snow |
|---|---|---|---|---|---|---|---|
| 1777988219 | 15° C | 88% | 1009.6 hPa | 0.76 mm | - | 23 W/m² | - |
| 1777987619 | 15° C | 86% | 1009.5 hPa | 0.51 mm | - | 21 W/m² | - |
| 1777987019 | 15.56° C | 82% | 1009.4 hPa | 0 mm | - | 40 W/m² | - |
| 1777986419 | 16.67° C | 77% | 1008.9 hPa | 0 mm | - | 83 W/m² | - |
| 1777985819 | 19.44° C | 67% | 1008.6 hPa | 0 mm | - | 63 W/m² | - |
| 1777985217 | 20° C | 62% | 1008.4 hPa | 0 mm | - | 130 W/m² | - |
| 1777984539 | 20° C | 62% | 1008.4 hPa | 0 mm | - | 153 W/m² | - |
| 1777983939 | 20° C | 61% | 1008.4 hPa | 0 mm | - | 190 W/m² | - |
| 1777983340 | 20° C | 63% | 1008.4 hPa | 0 mm | - | 202 W/m² | - |
| 1777982740 | 19.44° C | 64% | 1008.6 hPa | 0 mm | - | 204 W/m² | - |
| 1777982139 | 19.44° C | 64% | 1008.5 hPa | 0 mm | - | 193 W/m² | - |
| 1777981539 | 19.44° C | 65% | 1008.5 hPa | 0 mm | - | 190 W/m² | - |
| 1777980939 | 19.44° C | 65% | 1008.4 hPa | 0 mm | - | 197 W/m² | - |
| 1777980339 | 19.44° C | 65% | 1008.4 hPa | 0 mm | - | 206 W/m² | - |
| 1777979740 | 20° C | 64% | 1008.5 hPa | 0 mm | - | 227 W/m² | - |
| 1777979140 | 20° C | 66% | 1008.5 hPa | 0 mm | - | 253 W/m² | - |
| 1777978540 | 19.44° C | 66% | 1008.6 hPa | 0 mm | - | 299 W/m² | - |
| 1777977940 | 19.44° C | 66% | 1008.9 hPa | 0 mm | - | 336 W/m² | - |
| 1777977340 | 19.44° C | 66% | 1009 hPa | 0 mm | - | 360 W/m² | - |
| 1777976740 | 18.89° C | 68% | 1009.1 hPa | 0 mm | - | 454 W/m² | - |
| 1777976140 | 18.89° C | 68% | 1009.1 hPa | 0 mm | - | 536 W/m² | - |
| 1777975540 | 18.89° C | 68% | 1009.3 hPa | 0 mm | - | 396 W/m² | - |
| 1777974939 | 18.89° C | 68% | 1009.3 hPa | 0 mm | - | 381 W/m² | - |
| 1777974339 | 18.89° C | 68% | 1009.3 hPa | 0 mm | - | 506 W/m² | - |
| 1777973740 | 19.44° C | 67% | 1009.4 hPa | 0 mm | - | 882 W/m² | - |
* Rain latest hour (hover to see other rain measurements)
** Current wind speed in m/s (hover to see current wind gust speed)